Invergordon, United Kingdom
Current Conditions -  °F | °C
As of 4:50 AM on Tuesday 21 Oct 2014 (Local Time) from EGPE Reporting Station
Scattered Clouds Scattered Clouds  
Wind Chill: 54°   Ceiling: Unl
Heat Index: 54°   Visibility: 6mi
Dew Point: 50°   Wind: 3mph
Humidity: 88%   Direction: 210°SSW
Pressure: 28.91"   Gusts: NA
Location:  57.69°N, 4.17°W
Report Text: EGPE 210350Z 21003KT 9999 FEW032 SCT044 12/10 Q0979
Loading
Personal Weather Stations






























Interactive Weather Map
Tropical Storm Tracking
New forecast layout! Learn more

10-Day Weather Forecast

Advertisements
Track Severe Weather on mobile